sensor_id;sensor_type;location;lat;lon;timestamp;temperature;humidity
52127;DHT22;38120;53.176;6.614;2023-03-12T00:00:19;-0.50;99.90
52127;DHT22;38120;53.176;6.614;2023-03-12T00:02:45;-1.00;99.90
52127;DHT22;38120;53.176;6.614;2023-03-12T00:05:11;-0.80;99.90
52127;DHT22;38120;53.176;6.614;2023-03-12T00:07:37;-0.80;99.90
52127;DHT22;38120;53.176;6.614;2023-03-12T00:10:04;-0.80;99.90
52127;DHT22;38120;53.176;6.614;2023-03-12T00:12:30;-0.70;99.90
52127;DHT22;38120;53.176;6.614;2023-03-12T00:14:56;-0.80;99.90
52127;DHT22;38120;53.176;6.614;2023-03-12T00:17:22;-0.90;99.90
52127;DHT22;38120;53.176;6.614;2023-03-12T00:19:53;-0.90;99.90
52127;DHT22;38120;53.176;6.614;2023-03-12T00:22:19;-0.80;99.90
52127;DHT22;38120;53.176;6.614;2023-03-12T00:24:56;-0.90;99.90
52127;DHT22;38120;53.176;6.614;2023-03-12T00:27:24;-0.40;99.90
52127;DHT22;38120;53.176;6.614;2023-03-12T00:29:49;-0.70;99.90
52127;DHT22;38120;53.176;6.614;2023-03-12T00:32:16;0.40;99.90
52127;DHT22;38120;53.176;6.614;2023-03-12T00:34:42;-0.90;99.90
52127;DHT22;38120;53.176;6.614;2023-03-12T00:37:07;-0.90;99.90
52127;DHT22;38120;53.176;6.614;2023-03-12T00:39:34;-1.00;99.90
52127;DHT22;38120;53.176;6.614;2023-03-12T00:42:00;-0.90;99.90
52127;DHT22;38120;53.176;6.614;2023-03-12T00:44:26;-1.00;99.90
52127;DHT22;38120;53.176;6.614;2023-03-12T00:46:52;-0.90;99.90
52127;DHT22;38120;53.176;6.614;2023-03-12T00:49:17;-0.90;99.90
52127;DHT22;38120;53.176;6.614;2023-03-12T00:51:43;-0.90;99.90
52127;DHT22;38120;53.176;6.614;2023-03-12T00:54:09;-0.90;99.90
52127;DHT22;38120;53.176;6.614;2023-03-12T00:56:35;-0.90;99.90
52127;DHT22;38120;53.176;6.614;2023-03-12T00:59:01;-1.00;99.90
52127;DHT22;38120;53.176;6.614;2023-03-12T01:01:26;-1.00;99.90
52127;DHT22;38120;53.176;6.614;2023-03-12T01:03:53;-1.00;99.90
52127;DHT22;38120;53.176;6.614;2023-03-12T01:06:20;-1.00;99.90
52127;DHT22;38120;53.176;6.614;2023-03-12T01:08:45;-1.00;99.90
52127;DHT22;38120;53.176;6.614;2023-03-12T01:11:16;-1.10;99.90
52127;DHT22;38120;53.176;6.614;2023-03-12T01:13:42;-1.00;99.90
52127;DHT22;38120;53.176;6.614;2023-03-12T01:16:08;-0.70;99.90
52127;DHT22;38120;53.176;6.614;2023-03-12T01:18:34;-1.10;99.90
52127;DHT22;38120;53.176;6.614;2023-03-12T01:20:59;-1.10;99.90
52127;DHT22;38120;53.176;6.614;2023-03-12T01:23:25;-1.10;99.90
52127;DHT22;38120;53.176;6.614;2023-03-12T01:25:51;-0.70;99.90
52127;DHT22;38120;53.176;6.614;2023-03-12T01:28:21;-1.10;99.90
52127;DHT22;38120;53.176;6.614;2023-03-12T01:30:47;-1.20;99.90
52127;DHT22;38120;53.176;6.614;2023-03-12T01:33:13;-1.20;99.90
52127;DHT22;38120;53.176;6.614;2023-03-12T01:35:40;-1.20;99.90
52127;DHT22;38120;53.176;6.614;2023-03-12T01:38:12;-1.10;99.90
52127;DHT22;38120;53.176;6.614;2023-03-12T01:40:39;-1.10;99.90
52127;DHT22;38120;53.176;6.614;2023-03-12T01:48:43;-1.10;99.90
52127;DHT22;38120;53.176;6.614;2023-03-12T01:51:11;-1.10;99.90
52127;DHT22;38120;53.176;6.614;2023-03-12T01:53:40;-0.60;99.90
52127;DHT22;38120;53.176;6.614;2023-03-12T01:56:08;-1.00;99.90
52127;DHT22;38120;53.176;6.614;2023-03-12T01:58:34;-1.00;99.90
52127;DHT22;38120;53.176;6.614;2023-03-12T02:01:00;-1.00;99.90
52127;DHT22;38120;53.176;6.614;2023-03-12T02:03:27;-0.90;99.90
52127;DHT22;38120;53.176;6.614;2023-03-12T02:05:57;-0.90;99.90
52127;DHT22;38120;53.176;6.614;2023-03-12T02:08:24;-0.80;99.90
52127;DHT22;38120;53.176;6.614;2023-03-12T02:10:50;0.00;99.90
52127;DHT22;38120;53.176;6.614;2023-03-12T02:13:16;-0.60;99.90
52127;DHT22;38120;53.176;6.614;2023-03-12T02:15:42;-0.60;99.90
52127;DHT22;38120;53.176;6.614;2023-03-12T02:18:10;-0.50;99.90
52127;DHT22;38120;53.176;6.614;2023-03-12T02:23:33;-0.50;99.90
52127;DHT22;38120;53.176;6.614;2023-03-12T02:26:01;-0.40;99.90
52127;DHT22;38120;53.176;6.614;2023-03-12T02:28:28;-0.40;99.90
52127;DHT22;38120;53.176;6.614;2023-03-12T02:30:59;-0.30;99.90
52127;DHT22;38120;53.176;6.614;2023-03-12T02:33:26;-0.30;99.90
52127;DHT22;38120;53.176;6.614;2023-03-12T02:35:53;-0.30;99.90
52127;DHT22;38120;53.176;6.614;2023-03-12T02:38:42;-0.30;99.90
52127;DHT22;38120;53.176;6.614;2023-03-12T02:43:45;-0.30;99.90
52127;DHT22;38120;53.176;6.614;2023-03-12T02:46:11;-0.30;99.90
52127;DHT22;38120;53.176;6.614;2023-03-12T02:48:38;-0.20;99.90
52127;DHT22;38120;53.176;6.614;2023-03-12T02:51:04;-0.20;99.90
52127;DHT22;38120;53.176;6.614;2023-03-12T02:53:29;-0.10;99.90
52127;DHT22;38120;53.176;6.614;2023-03-12T02:55:55;-0.10;99.90
52127;DHT22;38120;53.176;6.614;2023-03-12T02:58:21;-0.10;99.90
52127;DHT22;38120;53.176;6.614;2023-03-12T03:00:47;-0.10;99.90
52127;DHT22;38120;53.176;6.614;2023-03-12T03:03:13;-0.10;99.90
52127;DHT22;38120;53.176;6.614;2023-03-12T03:05:39;-0.10;99.90
52127;DHT22;38120;53.176;6.614;2023-03-12T03:08:05;0.00;99.90
52127;DHT22;38120;53.176;6.614;2023-03-12T03:10:31;0.00;99.90
52127;DHT22;38120;53.176;6.614;2023-03-12T03:12:57;0.10;99.90
52127;DHT22;38120;53.176;6.614;2023-03-12T03:15:22;0.10;99.90
52127;DHT22;38120;53.176;6.614;2023-03-12T03:17:48;0.10;99.90
52127;DHT22;38120;53.176;6.614;2023-03-12T03:20:14;0.10;99.90
52127;DHT22;38120;53.176;6.614;2023-03-12T03:22:40;0.10;99.90
52127;DHT22;38120;53.176;6.614;2023-03-12T03:25:06;0.10;99.90
52127;DHT22;38120;53.176;6.614;2023-03-12T03:27:33;0.20;99.90
52127;DHT22;38120;53.176;6.614;2023-03-12T03:29:58;0.10;99.90
52127;DHT22;38120;53.176;6.614;2023-03-12T03:32:24;0.10;99.90
52127;DHT22;38120;53.176;6.614;2023-03-12T03:34:50;0.20;99.90
52127;DHT22;38120;53.176;6.614;2023-03-12T03:37:15;0.20;99.90
52127;DHT22;38120;53.176;6.614;2023-03-12T03:39:41;1.80;99.90
52127;DHT22;38120;53.176;6.614;2023-03-12T03:42:07;0.20;99.90
52127;DHT22;38120;53.176;6.614;2023-03-12T03:44:33;0.50;99.90
52127;DHT22;38120;53.176;6.614;2023-03-12T03:46:58;0.20;99.90
52127;DHT22;38120;53.176;6.614;2023-03-12T03:49:24;0.20;99.90
52127;DHT22;38120;53.176;6.614;2023-03-12T03:51:50;0.70;99.90
52127;DHT22;38120;53.176;6.614;2023-03-12T03:54:17;0.30;99.90
52127;DHT22;38120;53.176;6.614;2023-03-12T03:56:43;0.30;99.90
52127;DHT22;38120;53.176;6.614;2023-03-12T03:59:09;0.30;99.90
52127;DHT22;38120;53.176;6.614;2023-03-12T04:01:35;0.30;99.90
52127;DHT22;38120;53.176;6.614;2023-03-12T04:04:02;0.40;99.90
52127;DHT22;38120;53.176;6.614;2023-03-12T04:06:28;0.30;99.90
52127;DHT22;38120;53.176;6.614;2023-03-12T04:08:56;1.60;99.90
52127;DHT22;38120;53.176;6.614;2023-03-12T04:11:22;0.40;99.90
52127;DHT22;38120;53.176;6.614;2023-03-12T04:13:48;0.40;99.90
52127;DHT22;38120;53.176;6.614;2023-03-12T04:16:15;0.40;99.90
52127;DHT22;38120;53.176;6.614;2023-03-12T04:18:41;0.40;99.90
52127;DHT22;38120;53.176;6.614;2023-03-12T04:21:09;0.50;99.90
52127;DHT22;38120;53.176;6.614;2023-03-12T04:23:36;0.40;99.90
52127;DHT22;38120;53.176;6.614;2023-03-12T04:26:02;0.70;99.90
52127;DHT22;38120;53.176;6.614;2023-03-12T04:28:28;0.50;99.90
52127;DHT22;38120;53.176;6.614;2023-03-12T04:31:02;0.50;99.90
52127;DHT22;38120;53.176;6.614;2023-03-12T04:33:33;0.50;99.90
52127;DHT22;38120;53.176;6.614;2023-03-12T04:35:59;0.50;99.90
52127;DHT22;38120;53.176;6.614;2023-03-12T04:38:26;0.50;99.90
52127;DHT22;38120;53.176;6.614;2023-03-12T04:41:07;0.50;99.90
52127;DHT22;38120;53.176;6.614;2023-03-12T04:43:33;0.50;99.90
52127;DHT22;38120;53.176;6.614;2023-03-12T04:45:59;0.50;99.90
52127;DHT22;38120;53.176;6.614;2023-03-12T04:48:25;0.50;99.90
52127;DHT22;38120;53.176;6.614;2023-03-12T04:50:51;0.50;99.90
52127;DHT22;38120;53.176;6.614;2023-03-12T04:53:17;0.50;99.90
52127;DHT22;38120;53.176;6.614;2023-03-12T04:55:43;0.50;99.90
52127;DHT22;38120;53.176;6.614;2023-03-12T04:58:09;0.50;99.90
52127;DHT22;38120;53.176;6.614;2023-03-12T05:00:35;0.50;99.90
52127;DHT22;38120;53.176;6.614;2023-03-12T05:03:01;0.60;99.90
52127;DHT22;38120;53.176;6.614;2023-03-12T05:05:27;0.50;99.90
52127;DHT22;38120;53.176;6.614;2023-03-12T05:07:52;0.50;99.90
52127;DHT22;38120;53.176;6.614;2023-03-12T05:10:18;0.60;99.90
52127;DHT22;38120;53.176;6.614;2023-03-12T05:12:44;0.60;99.90
52127;DHT22;38120;53.176;6.614;2023-03-12T05:15:10;0.60;99.90
52127;DHT22;38120;53.176;6.614;2023-03-12T05:17:35;0.60;99.90
52127;DHT22;38120;53.176;6.614;2023-03-12T05:20:02;0.60;99.90
52127;DHT22;38120;53.176;6.614;2023-03-12T05:22:29;0.70;99.90
52127;DHT22;38120;53.176;6.614;2023-03-12T05:24:55;0.70;99.90
52127;DHT22;38120;53.176;6.614;2023-03-12T05:27:20;1.00;99.90
52127;DHT22;38120;53.176;6.614;2023-03-12T05:29:46;0.70;99.90
52127;DHT22;38120;53.176;6.614;2023-03-12T05:32:12;0.70;99.90
52127;DHT22;38120;53.176;6.614;2023-03-12T05:34:38;0.80;99.90
52127;DHT22;38120;53.176;6.614;2023-03-12T05:37:04;0.80;99.90
52127;DHT22;38120;53.176;6.614;2023-03-12T05:39:29;0.80;99.90
52127;DHT22;38120;53.176;6.614;2023-03-12T05:41:55;0.80;99.90
52127;DHT22;38120;53.176;6.614;2023-03-12T05:44:25;0.80;99.90
52127;DHT22;38120;53.176;6.614;2023-03-12T05:46:52;1.00;99.90
52127;DHT22;38120;53.176;6.614;2023-03-12T05:49:19;0.80;99.90
52127;DHT22;38120;53.176;6.614;2023-03-12T05:51:49;0.80;99.90
52127;DHT22;38120;53.176;6.614;2023-03-12T05:54:17;1.10;99.90
52127;DHT22;38120;53.176;6.614;2023-03-12T05:56:42;1.30;99.90
52127;DHT22;38120;53.176;6.614;2023-03-12T05:59:08;1.00;99.90
52127;DHT22;38120;53.176;6.614;2023-03-12T06:01:34;1.00;99.90
52127;DHT22;38120;53.176;6.614;2023-03-12T06:04:00;0.90;99.90
52127;DHT22;38120;53.176;6.614;2023-03-12T06:06:26;1.00;99.90
52127;DHT22;38120;53.176;6.614;2023-03-12T06:08:54;1.00;99.90
52127;DHT22;38120;53.176;6.614;2023-03-12T06:11:19;1.10;99.90
52127;DHT22;38120;53.176;6.614;2023-03-12T06:13:45;1.50;99.90
52127;DHT22;38120;53.176;6.614;2023-03-12T06:16:15;1.00;99.90
52127;DHT22;38120;53.176;6.614;2023-03-12T06:18:42;1.00;99.90
52127;DHT22;38120;53.176;6.614;2023-03-12T06:21:09;1.10;99.90
52127;DHT22;38120;53.176;6.614;2023-03-12T06:23:35;1.00;99.90
52127;DHT22;38120;53.176;6.614;2023-03-12T06:26:01;1.80;99.90
52127;DHT22;38120;53.176;6.614;2023-03-12T06:28:27;1.10;99.90
52127;DHT22;38120;53.176;6.614;2023-03-12T06:30:54;1.10;99.90
52127;DHT22;38120;53.176;6.614;2023-03-12T06:33:20;2.80;99.90
52127;DHT22;38120;53.176;6.614;2023-03-12T06:35:46;1.20;99.90
52127;DHT22;38120;53.176;6.614;2023-03-12T06:38:12;1.30;99.90
52127;DHT22;38120;53.176;6.614;2023-03-12T06:40:38;1.20;99.90
52127;DHT22;38120;53.176;6.614;2023-03-12T06:43:04;1.20;99.90
52127;DHT22;38120;53.176;6.614;2023-03-12T06:45:29;2.30;99.90
52127;DHT22;38120;53.176;6.614;2023-03-12T06:47:55;1.20;99.90
52127;DHT22;38120;53.176;6.614;2023-03-12T06:50:21;1.30;99.90
52127;DHT22;38120;53.176;6.614;2023-03-12T06:52:47;2.50;99.90
52127;DHT22;38120;53.176;6.614;2023-03-12T06:55:12;1.30;99.90
52127;DHT22;38120;53.176;6.614;2023-03-12T06:57:38;1.30;99.90
52127;DHT22;38120;53.176;6.614;2023-03-12T07:00:05;1.30;99.90
52127;DHT22;38120;53.176;6.614;2023-03-12T07:02:32;1.30;99.90
52127;DHT22;38120;53.176;6.614;2023-03-12T07:04:58;1.50;99.90
52127;DHT22;38120;53.176;6.614;2023-03-12T07:07:23;1.40;99.90
52127;DHT22;38120;53.176;6.614;2023-03-12T07:09:49;1.40;99.90
52127;DHT22;38120;53.176;6.614;2023-03-12T07:12:15;1.50;99.90
52127;DHT22;38120;53.176;6.614;2023-03-12T07:14:41;1.50;99.90
52127;DHT22;38120;53.176;6.614;2023-03-12T07:17:06;1.80;99.90
52127;DHT22;38120;53.176;6.614;2023-03-12T07:19:32;1.50;99.90
52127;DHT22;38120;53.176;6.614;2023-03-12T07:21:58;1.50;99.90
52127;DHT22;38120;53.176;6.614;2023-03-12T07:24:23;1.50;99.90
52127;DHT22;38120;53.176;6.614;2023-03-12T07:26:49;1.50;99.90
52127;DHT22;38120;53.176;6.614;2023-03-12T07:29:15;1.50;99.90
52127;DHT22;38120;53.176;6.614;2023-03-12T07:31:40;1.40;99.90
52127;DHT22;38120;53.176;6.614;2023-03-12T07:34:06;1.40;99.90
52127;DHT22;38120;53.176;6.614;2023-03-12T07:36:32;1.30;99.90
52127;DHT22;38120;53.176;6.614;2023-03-12T07:38:57;1.70;99.90
52127;DHT22;38120;53.176;6.614;2023-03-12T07:41:23;1.30;99.90
52127;DHT22;38120;53.176;6.614;2023-03-12T07:43:49;1.30;99.90
52127;DHT22;38120;53.176;6.614;2023-03-12T07:46:14;1.20;99.90
52127;DHT22;38120;53.176;6.614;2023-03-12T07:48:41;1.20;99.90
52127;DHT22;38120;53.176;6.614;2023-03-12T07:51:07;1.20;99.90
52127;DHT22;38120;53.176;6.614;2023-03-12T07:53:33;1.20;99.90
52127;DHT22;38120;53.176;6.614;2023-03-12T07:55:59;1.20;99.90
52127;DHT22;38120;53.176;6.614;2023-03-12T07:58:24;1.10;99.90
52127;DHT22;38120;53.176;6.614;2023-03-12T08:00:50;1.40;99.90
52127;DHT22;38120;53.176;6.614;2023-03-12T08:03:18;1.50;99.90
52127;DHT22;38120;53.176;6.614;2023-03-12T08:05:43;1.00;99.90
52127;DHT22;38120;53.176;6.614;2023-03-12T08:08:09;1.10;99.90
52127;DHT22;38120;53.176;6.614;2023-03-12T08:10:35;1.00;99.90
52127;DHT22;38120;53.176;6.614;2023-03-12T08:13:01;1.00;99.90
52127;DHT22;38120;53.176;6.614;2023-03-12T08:15:27;1.00;99.90
52127;DHT22;38120;53.176;6.614;2023-03-12T08:17:53;1.00;99.90
52127;DHT22;38120;53.176;6.614;2023-03-12T08:20:18;1.00;99.90
52127;DHT22;38120;53.176;6.614;2023-03-12T08:22:44;1.00;99.90
52127;DHT22;38120;53.176;6.614;2023-03-12T08:25:10;1.00;99.90
52127;DHT22;38120;53.176;6.614;2023-03-12T08:27:37;1.00;99.90
52127;DHT22;38120;53.176;6.614;2023-03-12T08:30:04;1.10;99.90
52127;DHT22;38120;53.176;6.614;2023-03-12T08:32:31;1.00;99.90
52127;DHT22;38120;53.176;6.614;2023-03-12T08:34:56;1.00;99.90
52127;DHT22;38120;53.176;6.614;2023-03-12T08:37:22;1.10;99.90
52127;DHT22;38120;53.176;6.614;2023-03-12T08:39:48;1.10;99.90
52127;DHT22;38120;53.176;6.614;2023-03-12T08:42:13;1.10;99.90
52127;DHT22;38120;53.176;6.614;2023-03-12T08:44:39;1.20;99.90
52127;DHT22;38120;53.176;6.614;2023-03-12T08:47:05;1.20;99.90
52127;DHT22;38120;53.176;6.614;2023-03-12T08:49:31;1.30;99.90
52127;DHT22;38120;53.176;6.614;2023-03-12T08:51:56;1.30;99.90
52127;DHT22;38120;53.176;6.614;2023-03-12T08:54:22;1.40;99.90
52127;DHT22;38120;53.176;6.614;2023-03-12T08:56:51;1.30;99.90
52127;DHT22;38120;53.176;6.614;2023-03-12T08:59:17;1.40;99.90
52127;DHT22;38120;53.176;6.614;2023-03-12T09:01:44;1.40;99.90
52127;DHT22;38120;53.176;6.614;2023-03-12T09:04:10;1.50;99.90
52127;DHT22;38120;53.176;6.614;2023-03-12T09:06:36;1.60;99.90
52127;DHT22;38120;53.176;6.614;2023-03-12T09:09:03;1.60;99.90
52127;DHT22;38120;53.176;6.614;2023-03-12T09:11:35;1.60;99.90
52127;DHT22;38120;53.176;6.614;2023-03-12T09:14:01;1.60;99.90
52127;DHT22;38120;53.176;6.614;2023-03-12T09:16:28;1.60;99.90
52127;DHT22;38120;53.176;6.614;2023-03-12T09:18:54;1.60;99.90
52127;DHT22;38120;53.176;6.614;2023-03-12T09:21:20;1.50;99.90
52127;DHT22;38120;53.176;6.614;2023-03-12T09:23:46;1.60;99.90
52127;DHT22;38120;53.176;6.614;2023-03-12T09:26:13;1.60;99.90
52127;DHT22;38120;53.176;6.614;2023-03-12T09:28:38;1.60;99.90
52127;DHT22;38120;53.176;6.614;2023-03-12T09:31:05;1.50;99.90
52127;DHT22;38120;53.176;6.614;2023-03-12T09:33:31;1.60;99.90
52127;DHT22;38120;53.176;6.614;2023-03-12T09:35:59;1.60;99.90
52127;DHT22;38120;53.176;6.614;2023-03-12T09:38:25;1.60;99.90
52127;DHT22;38120;53.176;6.614;2023-03-12T09:40:51;2.60;99.90
52127;DHT22;38120;53.176;6.614;2023-03-12T09:43:37;1.60;99.90
52127;DHT22;38120;53.176;6.614;2023-03-12T09:46:21;1.60;99.90
52127;DHT22;38120;53.176;6.614;2023-03-12T09:48:49;1.60;99.90
52127;DHT22;38120;53.176;6.614;2023-03-12T09:51:35;1.60;99.90
52127;DHT22;38120;53.176;6.614;2023-03-12T09:54:05;1.60;99.90
52127;DHT22;38120;53.176;6.614;2023-03-12T09:56:32;1.70;99.90
52127;DHT22;38120;53.176;6.614;2023-03-12T09:58:58;2.00;99.90
52127;DHT22;38120;53.176;6.614;2023-03-12T10:01:35;2.80;99.90
52127;DHT22;38120;53.176;6.614;2023-03-12T10:04:23;1.60;99.90
52127;DHT22;38120;53.176;6.614;2023-03-12T10:26:09;1.80;99.90
52127;DHT22;38120;53.176;6.614;2023-03-12T10:28:44;1.90;99.90
52127;DHT22;38120;53.176;6.614;2023-03-12T10:31:25;1.90;99.90
52127;DHT22;38120;53.176;6.614;2023-03-12T10:33:58;1.90;99.90
52127;DHT22;38120;53.176;6.614;2023-03-12T10:38:57;2.00;99.90
52127;DHT22;38120;53.176;6.614;2023-03-12T10:41:28;2.00;99.90
52127;DHT22;38120;53.176;6.614;2023-03-12T10:43:57;2.00;99.90
52127;DHT22;38120;53.176;6.614;2023-03-12T10:49:24;2.10;99.90
52127;DHT22;38120;53.176;6.614;2023-03-12T10:54:39;2.20;99.90
52127;DHT22;38120;53.176;6.614;2023-03-12T10:57:07;2.20;99.90
52127;DHT22;38120;53.176;6.614;2023-03-12T10:59:35;2.20;99.90
52127;DHT22;38120;53.176;6.614;2023-03-12T11:02:19;2.20;99.90
52127;DHT22;38120;53.176;6.614;2023-03-12T11:04:52;2.20;99.90
52127;DHT22;38120;53.176;6.614;2023-03-12T11:07:26;2.20;99.90
52127;DHT22;38120;53.176;6.614;2023-03-12T11:10:26;2.20;99.90
52127;DHT22;38120;53.176;6.614;2023-03-12T11:13:04;2.30;99.90
52127;DHT22;38120;53.176;6.614;2023-03-12T11:15:40;2.30;99.90
52127;DHT22;38120;53.176;6.614;2023-03-12T11:18:36;2.30;99.90
52127;DHT22;38120;53.176;6.614;2023-03-12T11:23:36;2.30;99.90
52127;DHT22;38120;53.176;6.614;2023-03-12T11:26:13;2.40;99.90
52127;DHT22;38120;53.176;6.614;2023-03-12T11:28:43;2.50;99.90
52127;DHT22;38120;53.176;6.614;2023-03-12T11:31:28;2.60;99.90
52127;DHT22;38120;53.176;6.614;2023-03-12T11:34:04;3.40;99.90
52127;DHT22;38120;53.176;6.614;2023-03-12T12:03:57;3.40;99.90
52127;DHT22;38120;53.176;6.614;2023-03-12T12:06:40;4.30;99.90
52127;DHT22;38120;53.176;6.614;2023-03-12T12:09:19;3.50;99.90
52127;DHT22;38120;53.176;6.614;2023-03-12T12:15:23;3.60;99.90
52127;DHT22;38120;53.176;6.614;2023-03-12T12:20:47;3.70;99.90
52127;DHT22;38120;53.176;6.614;2023-03-12T12:23:23;3.70;99.90
52127;DHT22;38120;53.176;6.614;2023-03-12T12:26:03;3.80;99.90
52127;DHT22;38120;53.176;6.614;2023-03-12T12:28:37;3.90;99.90
52127;DHT22;38120;53.176;6.614;2023-03-12T12:36:13;4.50;99.90
52127;DHT22;38120;53.176;6.614;2023-03-12T12:38:43;4.40;99.90
52127;DHT22;38120;53.176;6.614;2023-03-12T12:41:29;4.70;99.90
52127;DHT22;38120;53.176;6.614;2023-03-12T12:43:59;4.50;99.90
52127;DHT22;38120;53.176;6.614;2023-03-12T12:46:33;4.50;99.90
52127;DHT22;38120;53.176;6.614;2023-03-12T12:49:07;4.60;99.90
52127;DHT22;38120;53.176;6.614;2023-03-12T12:51:39;4.70;99.90
52127;DHT22;38120;53.176;6.614;2023-03-12T12:56:52;5.00;99.90
52127;DHT22;38120;53.176;6.614;2023-03-12T12:59:37;5.10;99.90
52127;DHT22;38120;53.176;6.614;2023-03-12T13:02:21;5.10;99.90
52127;DHT22;38120;53.176;6.614;2023-03-12T13:04:55;5.20;99.90
52127;DHT22;38120;53.176;6.614;2023-03-12T13:09:50;5.50;99.90
52127;DHT22;38120;53.176;6.614;2023-03-12T13:12:41;5.60;99.90
52127;DHT22;38120;53.176;6.614;2023-03-12T13:18:02;6.00;99.90
52127;DHT22;38120;53.176;6.614;2023-03-12T13:26:22;6.30;99.90
52127;DHT22;38120;53.176;6.614;2023-03-12T13:33:56;6.50;99.90
52127;DHT22;38120;53.176;6.614;2023-03-12T13:36:27;6.60;99.90
52127;DHT22;38120;53.176;6.614;2023-03-12T13:41:36;6.80;99.90
52127;DHT22;38120;53.176;6.614;2023-03-12T13:46:48;7.00;99.90
52127;DHT22;38120;53.176;6.614;2023-03-12T13:49:15;7.20;99.90
52127;DHT22;38120;53.176;6.614;2023-03-12T13:51:52;7.20;99.90
52127;DHT22;38120;53.176;6.614;2023-03-12T13:54:19;7.30;99.90
52127;DHT22;38120;53.176;6.614;2023-03-12T13:57:03;7.40;99.90
52127;DHT22;38120;53.176;6.614;2023-03-12T13:59:30;7.40;99.90
52127;DHT22;38120;53.176;6.614;2023-03-12T14:01:58;7.40;99.90
52127;DHT22;38120;53.176;6.614;2023-03-12T14:04:46;7.40;99.90
52127;DHT22;38120;53.176;6.614;2023-03-12T14:07:26;7.40;99.90
52127;DHT22;38120;53.176;6.614;2023-03-12T14:15:25;7.70;99.90
52127;DHT22;38120;53.176;6.614;2023-03-12T14:17:58;7.60;99.90
52127;DHT22;38120;53.176;6.614;2023-03-12T14:20:26;7.70;99.90
52127;DHT22;38120;53.176;6.614;2023-03-12T14:23:06;7.80;99.90
52127;DHT22;38120;53.176;6.614;2023-03-12T14:25:35;7.80;99.90
52127;DHT22;38120;53.176;6.614;2023-03-12T14:28:08;7.90;99.90
52127;DHT22;38120;53.176;6.614;2023-03-12T14:30:49;7.90;99.90
52127;DHT22;38120;53.176;6.614;2023-03-12T14:33:20;8.00;99.90
52127;DHT22;38120;53.176;6.614;2023-03-12T14:35:52;7.90;99.90
52127;DHT22;38120;53.176;6.614;2023-03-12T14:38:24;8.30;99.90
52127;DHT22;38120;53.176;6.614;2023-03-12T14:43:32;8.10;99.90
52127;DHT22;38120;53.176;6.614;2023-03-12T14:46:04;8.10;99.90
52127;DHT22;38120;53.176;6.614;2023-03-12T14:48:39;8.20;99.90
52127;DHT22;38120;53.176;6.614;2023-03-12T14:51:06;8.20;99.90
52127;DHT22;38120;53.176;6.614;2023-03-12T14:53:36;8.20;99.90
52127;DHT22;38120;53.176;6.614;2023-03-12T14:56:13;8.20;99.90
52127;DHT22;38120;53.176;6.614;2023-03-12T14:58:46;8.20;99.90
52127;DHT22;38120;53.176;6.614;2023-03-12T15:01:16;8.20;99.90
52127;DHT22;38120;53.176;6.614;2023-03-12T15:03:46;8.20;99.90
52127;DHT22;38120;53.176;6.614;2023-03-12T15:06:30;8.20;99.90
52127;DHT22;38120;53.176;6.614;2023-03-12T15:08:57;8.20;99.90
52127;DHT22;38120;53.176;6.614;2023-03-12T15:11:24;8.20;99.90
52127;DHT22;38120;53.176;6.614;2023-03-12T15:13:52;8.20;99.90
52127;DHT22;38120;53.176;6.614;2023-03-12T15:16:20;8.20;99.90
52127;DHT22;38120;53.176;6.614;2023-03-12T15:18:46;8.20;99.90
52127;DHT22;38120;53.176;6.614;2023-03-12T15:21:15;8.20;99.90
52127;DHT22;38120;53.176;6.614;2023-03-12T15:23:44;8.40;99.90
52127;DHT22;38120;53.176;6.614;2023-03-12T15:26:15;8.20;99.90
52127;DHT22;38120;53.176;6.614;2023-03-12T15:29:21;8.20;99.90
52127;DHT22;38120;53.176;6.614;2023-03-12T15:32:07;8.20;99.90
52127;DHT22;38120;53.176;6.614;2023-03-12T15:34:38;8.30;99.90
52127;DHT22;38120;53.176;6.614;2023-03-12T15:40:05;8.30;99.90
52127;DHT22;38120;53.176;6.614;2023-03-12T15:42:39;8.30;99.90
52127;DHT22;38120;53.176;6.614;2023-03-12T15:45:19;8.30;99.90
52127;DHT22;38120;53.176;6.614;2023-03-12T15:47:46;8.30;99.90
52127;DHT22;38120;53.176;6.614;2023-03-12T15:50:26;8.30;99.90
52127;DHT22;38120;53.176;6.614;2023-03-12T15:55:32;8.30;99.90
52127;DHT22;38120;53.176;6.614;2023-03-12T15:57:59;8.30;99.90
52127;DHT22;38120;53.176;6.614;2023-03-12T16:03:04;8.40;99.90
52127;DHT22;38120;53.176;6.614;2023-03-12T16:05:38;8.50;99.90
52127;DHT22;38120;53.176;6.614;2023-03-12T16:08:17;8.50;99.90
52127;DHT22;38120;53.176;6.614;2023-03-12T16:10:54;8.70;99.90
52127;DHT22;38120;53.176;6.614;2023-03-12T16:13:24;8.60;99.90
52127;DHT22;38120;53.176;6.614;2023-03-12T16:15:52;8.70;99.90
52127;DHT22;38120;53.176;6.614;2023-03-12T16:18:20;8.70;99.90
52127;DHT22;38120;53.176;6.614;2023-03-12T16:20:47;8.60;99.90
52127;DHT22;38120;53.176;6.614;2023-03-12T16:23:14;8.60;99.90
52127;DHT22;38120;53.176;6.614;2023-03-12T16:25:49;8.60;99.90
52127;DHT22;38120;53.176;6.614;2023-03-12T16:28:18;8.60;99.90
52127;DHT22;38120;53.176;6.614;2023-03-12T16:30:44;9.20;99.90
52127;DHT22;38120;53.176;6.614;2023-03-12T16:33:19;9.60;99.90
52127;DHT22;38120;53.176;6.614;2023-03-12T16:35:45;8.50;99.90
52127;DHT22;38120;53.176;6.614;2023-03-12T16:38:11;8.50;99.90
52127;DHT22;38120;53.176;6.614;2023-03-12T16:40:41;8.50;99.90
52127;DHT22;38120;53.176;6.614;2023-03-12T16:43:14;8.40;99.90
52127;DHT22;38120;53.176;6.614;2023-03-12T16:45:42;8.40;99.90
52127;DHT22;38120;53.176;6.614;2023-03-12T16:48:13;8.40;99.90
52127;DHT22;38120;53.176;6.614;2023-03-12T16:50:39;8.30;99.90
52127;DHT22;38120;53.176;6.614;2023-03-12T16:53:04;8.30;99.90
52127;DHT22;38120;53.176;6.614;2023-03-12T16:58:16;8.30;99.90
52127;DHT22;38120;53.176;6.614;2023-03-12T17:00:43;8.30;99.90
52127;DHT22;38120;53.176;6.614;2023-03-12T17:03:48;8.60;99.90
52127;DHT22;38120;53.176;6.614;2023-03-12T17:06:23;8.20;99.90
52127;DHT22;38120;53.176;6.614;2023-03-12T17:08:51;8.10;99.90
52127;DHT22;38120;53.176;6.614;2023-03-12T17:11:25;8.10;99.90
52127;DHT22;38120;53.176;6.614;2023-03-12T17:14:01;8.10;99.90
52127;DHT22;38120;53.176;6.614;2023-03-12T17:16:28;8.00;99.90
52127;DHT22;38120;53.176;6.614;2023-03-12T17:18:54;8.40;99.90
52127;DHT22;38120;53.176;6.614;2023-03-12T17:21:20;8.00;99.90
52127;DHT22;38120;53.176;6.614;2023-03-12T17:23:47;8.20;99.90
52127;DHT22;38120;53.176;6.614;2023-03-12T17:26:15;8.90;99.90
52127;DHT22;38120;53.176;6.614;2023-03-12T17:28:41;7.90;99.90
52127;DHT22;38120;53.176;6.614;2023-03-12T17:31:07;7.80;99.90
52127;DHT22;38120;53.176;6.614;2023-03-12T17:33:32;7.80;99.90
52127;DHT22;38120;53.176;6.614;2023-03-12T17:36:01;8.50;99.90
52127;DHT22;38120;53.176;6.614;2023-03-12T17:38:27;7.70;99.90
52127;DHT22;38120;53.176;6.614;2023-03-12T17:40:53;8.40;99.90
52127;DHT22;38120;53.176;6.614;2023-03-12T17:43:19;7.70;99.90
52127;DHT22;38120;53.176;6.614;2023-03-12T17:45:44;7.70;99.90
52127;DHT22;38120;53.176;6.614;2023-03-12T17:48:11;7.70;99.90
52127;DHT22;38120;53.176;6.614;2023-03-12T17:50:36;8.40;99.90
52127;DHT22;38120;53.176;6.614;2023-03-12T17:53:02;7.60;99.90
52127;DHT22;38120;53.176;6.614;2023-03-12T17:55:28;8.00;99.90